createdAt,value
2022-08-16T00:04:05.280Z,97139.59
2022-08-16T00:09:06.982Z,97144.38
2022-08-16T00:14:08.934Z,97142.84
2022-08-16T00:19:10.334Z,97153.19
2022-08-16T00:24:31.392Z,97157.63
2022-08-16T00:29:34.136Z,97153.19
2022-08-16T00:34:44.637Z,97152.28
2022-08-16T00:39:57.759Z,97153.50
2022-08-16T00:45:00.149Z,97157.22
2022-08-16T00:50:01.540Z,97164.75
2022-08-16T00:55:03.482Z,97160.81
2022-08-16T01:00:09.678Z,97163.00
2022-08-16T01:05:12.051Z,97170.16
2022-08-16T01:10:16.393Z,97167.03
2022-08-16T01:15:18.422Z,97158.84
2022-08-16T01:20:24.114Z,97153.31
2022-08-16T01:25:33.743Z,97166.09
2022-08-16T01:30:36.809Z,97175.34
2022-08-16T01:35:41.539Z,97175.09
2022-08-16T01:40:43.165Z,97178.28
2022-08-16T01:45:47.401Z,97174.66
2022-08-16T01:51:08.871Z,97178.81
2022-08-16T01:56:23.536Z,97182.03
2022-08-16T02:01:28.343Z,97182.00
2022-08-16T02:06:34.667Z,97186.31
2022-08-16T02:11:47.622Z,97175.09
2022-08-16T02:16:50.089Z,97189.78
2022-08-16T02:22:08.360Z,97182.72
2022-08-16T02:27:12.561Z,97181.59
2022-08-16T02:32:49.041Z,97173.59
2022-08-16T02:37:51.240Z,97169.53
2022-08-16T02:42:54.152Z,97171.00
2022-08-16T02:48:01.087Z,97163.28
2022-08-16T02:53:18.309Z,97160.66
2022-08-16T02:58:25.403Z,97159.81
2022-08-16T03:03:26.765Z,97162.91
2022-08-16T03:08:50.192Z,97168.50
2022-08-16T03:13:55.808Z,97171.41
2022-08-16T03:18:57.946Z,97165.53
2022-08-16T03:24:03.370Z,97151.97
2022-08-16T03:29:04.663Z,97156.38
2022-08-16T03:34:08.843Z,97170.13
2022-08-16T03:39:14.869Z,97166.50
2022-08-16T03:44:44.404Z,97172.28
2022-08-16T03:49:39.006Z,97181.97
2022-08-16T03:54:53.553Z,97191.50
2022-08-16T04:00:00.038Z,97181.34
2022-08-16T04:05:03.885Z,97185.22
2022-08-16T04:10:36.225Z,97181.06
2022-08-16T04:15:29.434Z,97176.47
2022-08-16T04:20:36.864Z,97169.38
2022-08-16T04:25:38.560Z,97171.88
2022-08-16T04:30:41.832Z,97178.53
2022-08-16T04:35:49.599Z,97174.22
2022-08-16T04:40:51.133Z,97182.56
2022-08-16T04:46:00.054Z,97188.97
2022-08-16T04:51:11.764Z,97190.75
2022-08-16T04:56:14.075Z,97187.97
2022-08-16T05:01:18.206Z,97201.16
2022-08-16T05:06:19.727Z,97207.66
2022-08-16T05:11:40.962Z,97213.91
2022-08-16T05:16:42.874Z,97214.19
2022-08-16T05:21:44.433Z,97217.81
2022-08-16T05:26:51.474Z,97205.03
2022-08-16T05:31:53.775Z,97207.53
2022-08-16T05:36:57.357Z,97215.88
2022-08-16T05:42:00.135Z,97227.78
2022-08-16T05:47:01.541Z,97228.84
2022-08-16T05:52:02.939Z,97229.28
2022-08-16T05:57:13.435Z,97228.41
2022-08-16T06:02:14.925Z,97217.38
2022-08-16T06:07:26.328Z,97225.31
2022-08-16T06:12:28.959Z,97218.25
2022-08-16T06:17:41.029Z,97225.63
2022-08-16T06:22:47.806Z,97229.28
2022-08-16T06:27:59.344Z,97232.78
2022-08-16T06:33:04.070Z,97228.09
2022-08-16T06:38:05.466Z,97233.03
2022-08-16T06:43:27.302Z,97229.47
2022-08-16T06:48:32.702Z,97231.09
2022-08-16T06:53:36.514Z,97237.63
2022-08-16T06:58:38.046Z,97233.81
2022-08-16T07:03:55.581Z,97223.47
2022-08-16T07:08:58.491Z,97225.19
2022-08-16T07:14:24.175Z,97219.88
2022-08-16T07:19:21.578Z,97208.50
2022-08-16T07:24:29.776Z,97220.03
2022-08-16T07:29:32.243Z,97213.16
2022-08-16T07:34:35.305Z,97224.91
2022-08-16T07:39:43.388Z,97217.56
2022-08-16T07:44:50.299Z,97213.09
2022-08-16T07:49:57.907Z,97196.25
2022-08-16T07:54:59.650Z,97198.63
2022-08-16T08:00:00.902Z,97193.66
2022-08-16T08:05:03.484Z,97201.09
2022-08-16T08:10:05.421Z,97198.00
2022-08-16T08:15:12.903Z,97204.09
2022-08-16T08:20:20.854Z,97193.59
2022-08-16T08:25:53.471Z,97197.47
2022-08-16T08:31:01.509Z,97188.84
2022-08-16T08:36:05.191Z,97193.16
2022-08-16T08:41:08.331Z,97193.34
2022-08-16T08:46:18.001Z,97180.78
2022-08-16T08:51:22.542Z,97187.38
2022-08-16T08:56:30.410Z,97186.84
2022-08-16T09:01:36.365Z,97169.03
2022-08-16T09:06:43.263Z,97172.09
2022-08-16T09:11:49.627Z,97173.19
2022-08-16T09:17:01.242Z,97159.06
2022-08-16T09:22:06.766Z,97144.72
2022-08-16T09:27:21.492Z,97145.50
2022-08-16T09:32:28.652Z,97152.69
2022-08-16T09:37:36.833Z,97155.03
2022-08-16T09:42:38.423Z,97138.31
2022-08-16T09:47:58.622Z,97121.03
2022-08-16T09:53:00.142Z,97134.56
2022-08-16T09:58:01.414Z,97126.06
2022-08-16T10:03:05.738Z,97120.50
2022-08-16T10:08:26.248Z,97112.06
2022-08-16T10:13:29.755Z,97110.91
2022-08-16T10:18:56.319Z,97096.94
2022-08-16T10:23:55.695Z,97092.50
2022-08-16T10:28:57.038Z,97072.72
2022-08-16T10:33:58.301Z,97069.91
2022-08-16T10:38:59.557Z,97070.00
2022-08-16T10:44:00.815Z,97082.28
2022-08-16T10:49:05.317Z,97080.34
2022-08-16T10:54:07.774Z,97065.47
2022-08-16T10:59:32.822Z,97074.88
2022-08-16T11:15:24.483Z,97060.03
2022-08-16T11:20:49.227Z,97059.00
2022-08-16T11:26:06.383Z,97043.53
2022-08-16T11:31:09.425Z,97046.69
2022-08-16T11:36:22.553Z,97032.56
2022-08-16T11:41:29.408Z,97036.53
2022-08-16T11:46:43.328Z,97043.78
2022-08-16T11:51:47.246Z,97040.19
2022-08-16T11:56:52.373Z,97050.31
2022-08-16T12:01:59.959Z,97043.53
2022-08-16T12:07:05.751Z,97046.88
2022-08-16T12:12:07.379Z,97045.59
2022-08-16T12:17:09.884Z,97048.00
2022-08-16T12:22:18.990Z,97050.28
2022-08-16T12:27:23.270Z,97034.72
2022-08-16T12:32:36.073Z,97038.03
2022-08-16T12:37:41.557Z,97031.56
2022-08-16T12:42:52.295Z,97003.78
2022-08-16T12:48:32.559Z,96998.94
2022-08-16T12:53:39.975Z,97003.69
2022-08-16T12:58:48.415Z,97006.69
2022-08-16T13:04:03.493Z,96994.41
2022-08-16T13:09:26.449Z,96998.31
2022-08-16T13:14:32.165Z,96996.81
2022-08-16T13:20:03.282Z,96980.81
2022-08-16T13:24:55.838Z,96987.78
2022-08-16T13:29:57.989Z,96989.00
2022-08-16T13:34:59.325Z,96991.22
2022-08-16T13:40:03.725Z,96987.69
2022-08-16T13:45:07.101Z,96979.31
2022-08-16T13:50:10.411Z,96981.28
2022-08-16T13:55:17.808Z,96984.38
2022-08-16T14:00:19.678Z,96974.41
2022-08-16T14:05:22.259Z,96968.25
2022-08-16T14:10:24.585Z,96971.50
2022-08-16T14:15:25.898Z,96972.50
2022-08-16T14:20:27.288Z,96975.22
2022-08-16T14:25:28.534Z,96979.56
2022-08-16T14:30:30.381Z,96980.16
2022-08-16T14:35:48.181Z,96985.56
2022-08-16T14:40:55.490Z,96977.25
2022-08-16T14:45:57.062Z,96968.81
2022-08-16T14:50:58.626Z,96979.72
2022-08-16T14:56:00.099Z,96978.78
2022-08-16T15:01:02.009Z,96965.00
2022-08-16T15:06:04.215Z,96968.47
2022-08-16T15:11:05.519Z,96961.72
2022-08-16T15:16:07.131Z,96957.31
2022-08-16T15:21:08.759Z,96966.78
2022-08-16T15:26:11.571Z,96968.25
2022-08-16T15:31:31.059Z,96962.88
2022-08-16T15:36:32.802Z,96957.78
2022-08-16T15:41:35.772Z,96935.06
2022-08-16T15:46:54.717Z,96945.19
2022-08-16T15:51:58.262Z,96966.81
2022-08-16T15:57:11.884Z,96968.00
2022-08-16T16:02:13.575Z,96970.25
2022-08-16T16:07:16.043Z,96958.44
2022-08-16T16:12:51.688Z,96941.94
2022-08-16T16:17:40.058Z,96937.22
2022-08-16T16:22:41.676Z,96945.50
2022-08-16T16:27:42.973Z,96943.47
2022-08-16T16:32:44.255Z,96961.44
2022-08-16T16:37:46.176Z,96934.72
2022-08-16T16:42:50.477Z,96921.72
2022-08-16T16:47:54.319Z,96936.09
2022-08-16T16:52:59.139Z,96945.44
2022-08-16T16:58:35.085Z,96951.88
2022-08-16T17:03:38.548Z,96934.69
2022-08-16T17:08:40.753Z,96950.31
2022-08-16T17:13:42.624Z,96979.59
2022-08-16T17:19:16.767Z,96966.53
2022-08-16T17:24:18.217Z,96973.78
2022-08-16T17:29:21.038Z,96975.63
2022-08-16T17:34:30.123Z,96980.09
2022-08-16T17:39:32.494Z,96980.72
2022-08-16T17:44:33.846Z,96984.06
2022-08-16T17:49:35.113Z,96979.34
2022-08-16T17:54:36.370Z,96983.47
2022-08-16T17:59:41.305Z,96990.50
2022-08-16T18:04:48.763Z,97006.63
2022-08-16T18:09:52.459Z,97009.41
2022-08-16T18:14:58.169Z,97004.03
2022-08-16T18:20:01.249Z,97011.84
2022-08-16T18:25:02.503Z,97020.53
2022-08-16T18:30:03.745Z,97014.22
2022-08-16T18:35:05.016Z,97019.34
2022-08-16T18:40:06.342Z,97030.59
2022-08-16T18:45:07.643Z,97029.75
2022-08-16T18:50:09.414Z,97044.75
2022-08-16T18:55:14.516Z,97049.69
2022-08-16T19:00:16.255Z,97049.97
2022-08-16T19:05:17.700Z,97061.91
2022-08-16T19:10:19.048Z,97077.88
2022-08-16T19:15:20.350Z,97093.53
2022-08-16T19:20:21.666Z,97094.41
2022-08-16T19:25:22.944Z,97108.47
2022-08-16T19:30:44.205Z,97111.47
2022-08-16T19:35:45.442Z,97120.16
2022-08-16T19:40:46.798Z,97127.97
2022-08-16T19:45:48.218Z,97126.97
2022-08-16T19:50:49.493Z,97132.47
2022-08-16T19:55:50.797Z,97137.31
2022-08-16T20:00:56.351Z,97150.22
2022-08-16T20:05:58.680Z,97148.06
2022-08-16T20:11:00.032Z,97159.50
2022-08-16T20:16:01.585Z,97166.94
2022-08-16T20:21:02.842Z,97168.56
2022-08-16T20:26:04.213Z,97162.31
2022-08-16T20:31:05.654Z,97168.66
2022-08-16T20:36:06.907Z,97182.59
2022-08-16T20:41:08.205Z,97187.97
2022-08-16T20:46:09.520Z,97201.41
2022-08-16T20:51:10.919Z,97191.06
2022-08-16T20:56:12.358Z,97198.69
2022-08-16T21:01:13.702Z,97205.16
2022-08-16T21:06:15.489Z,97202.56
2022-08-16T21:11:16.743Z,97213.41
2022-08-16T21:16:17.995Z,97211.81
2022-08-16T21:21:19.488Z,97216.69
2022-08-16T21:26:24.079Z,97217.00
2022-08-16T21:31:25.367Z,97227.66
2022-08-16T21:36:35.127Z,97218.81
2022-08-16T21:41:38.537Z,97226.84
2022-08-16T21:46:39.847Z,97223.94
2022-08-16T21:51:41.200Z,97229.69
2022-08-16T21:56:42.465Z,97228.53
2022-08-16T22:01:43.820Z,97228.16
2022-08-16T22:06:45.199Z,97230.16
2022-08-16T22:11:46.466Z,97232.16
2022-08-16T22:16:47.728Z,97244.91
2022-08-16T22:21:49.260Z,97241.78
2022-08-16T22:26:50.548Z,97242.69
2022-08-16T22:31:51.832Z,97237.59
2022-08-16T22:36:53.730Z,97244.34
2022-08-16T22:41:55.042Z,97238.25
2022-08-16T22:46:56.531Z,97234.97
2022-08-16T22:51:57.778Z,97236.00
2022-08-16T22:56:59.199Z,97233.13
2022-08-16T23:02:00.536Z,97232.59
2022-08-16T23:07:02.010Z,97235.69
2022-08-16T23:12:07.480Z,97243.03
2022-08-16T23:17:11.503Z,97241.38
2022-08-16T23:22:12.941Z,97242.25
2022-08-16T23:27:14.676Z,97237.63
2022-08-16T23:32:15.955Z,97238.75
2022-08-16T23:37:17.257Z,97236.38
2022-08-16T23:42:52.260Z,97228.78
2022-08-16T23:47:39.759Z,97225.00
2022-08-16T23:52:54.740Z,97223.19
2022-08-16T23:57:57.216Z,97220.97
